Kaiser — NHJK — position and weather

sailwx.info

Track history (hours):
 
Tides and Currents Weather Stations Pressure Air Temp Water Temp Dewpoint Dewpoint Depression Visibility Wind Speed Wind Dir Waves Ship Positions

Kaiser

Last reported at 2015-Jul-07 10:33 UTC. Time now 2015-Jul-07 13:10 UTC.
Position N 31°19' W 117°56'.

Length 207 m; draft 8.5 m.

Type: Tanker. MMSI: 303849000.

Date/timePositionNaut miles runAvg speedWind from/ knotsBaromVisibWave heightAir tempDewpointWater temp
2015-Jul-07 10:33N 31°19' W 117°56'4810.8
2015-Jul-07 06:05N 31°58' W 118°30'510.1
2015-Jul-07 05:33N 32°03' W 118°30'1313.2
2015-Jul-07 04:33N 32°16' W 118°31'1914.2
2015-Jul-07 03:13N 32°30' W 118°47'6 9.0
2015-Jul-07 02:33N 32°36' W 118°49'1212.5
2015-Jul-07 01:33N 32°36' W 118°34'1312.8
2015-Jul-07 00:33N 32°36' W 118°19'1212.6
2015-Jul-06 23:33N 32°36' W 118°04'8 7.7
2015-Jul-06 22:34N 32°36' W 117°55'4 4.1
2015-Jul-06 21:33N 32°37' W 117°50'1312.5
2015-Jul-06 20:33N 32°36' W 117°35'1212.0
2015-Jul-06 19:33N 32°36' W 117°21'8 8.4
2015-Jul-06 18:33N 32°42' W 117°14'2 2.3
2015-Jul-06 17:32N 32°42' W 117°11'0 0.0
2015-Jul-06 16:32N 32°42' W 117°11'0 0.0
2015-Jul-06 15:32N 32°42' W 117°11'0 0.0
2015-Jul-06 14:32N 32°42' W 117°11'0 0.0
2015-Jul-06 13:32N 32°42' W 117°11'0 0.0
2015-Jul-06 12:32N 32°42' W 117°11'0 0.0
2015-Jul-06 11:32N 32°42' W 117°11'0 0.0
2015-Jul-06 10:32N 32°42' W 117°11'0 0.0
2015-Jul-06 09:32N 32°42' W 117°11'0 0.0
2015-Jul-06 08:32N 32°42' W 117°11'0 0.0
2015-Jul-06 07:32N 32°42' W 117°11'0 0.0
2015-Jul-06 06:32N 32°42' W 117°11'0 0.0
2015-Jul-06 05:32N 32°42' W 117°11'0 0.0
2015-Jul-06 04:32N 32°42' W 117°11'0 0.0
2015-Jul-06 03:32N 32°42' W 117°11'0 0.0
2015-Jul-06 02:32N 32°42' W 117°11'0 0.0
2015-Jul-06 01:32N 32°42' W 117°11'0 0.0
2015-Jul-06 00:32N 32°42' W 117°11'0 0.0
2015-Jul-05 23:32N 32°42' W 117°11'0 0.0
2015-Jul-05 22:32N 32°42' W 117°11'0 0.0
2015-Jul-05 21:32N 32°42' W 117°11'0 0.0
2015-Jul-05 20:32N 32°42' W 117°11'0 0.0
2015-Jul-05 19:32N 32°42' W 117°11'0 0.0
2015-Jul-05 18:32N 32°42' W 117°11'0 0.0
2015-Jul-05 17:32N 32°42' W 117°11'0 0.0
2015-Jul-05 16:32N 32°42' W 117°11'0 0.0
2015-Jul-05 15:32N 32°42' W 117°11'0 0.0
2015-Jul-05 14:32N 32°42' W 117°11'0 0.0
2015-Jul-05 13:32N 32°42' W 117°11'0 0.0
2015-Jul-05 12:32N 32°42' W 117°11'0 0.0
2015-Jul-05 11:32N 32°42' W 117°11'0 0.0
2015-Jul-05 10:32N 32°42' W 117°11'0 0.0
2015-Jul-05 09:32N 32°42' W 117°11'0 0.0
2015-Jul-05 08:32N 32°42' W 117°11'0 0.0
2015-Jul-05 07:32N 32°42' W 117°11'0 0.0
2015-Jul-05 06:32N 32°42' W 117°11'0 0.0
2015-Jul-05 05:32N 32°42' W 117°11'0 0.0
2015-Jul-05 04:32N 32°42' W 117°11'0 0.0
2015-Jul-05 03:32N 32°42' W 117°11'0 0.0
2015-Jul-05 02:29N 32°42' W 117°11'0 0.0
2015-Jul-05 01:32N 32°42' W 117°11'0 0.0
2015-Jul-05 00:32N 32°42' W 117°11'0 0.1
2015-Jul-04 23:32N 32°42' W 117°11'0 0.1
2015-Jul-04 22:32N 32°42' W 117°11'0 0.0
2015-Jul-04 21:32N 32°42' W 117°11'0 0.0
2015-Jul-04 20:32N 32°42' W 117°11'0 0.0
2015-Jul-04 19:32N 32°42' W 117°11'0 0.0
2015-Jul-04 18:32N 32°42' W 117°11'0 0.0
2015-Jul-04 17:32N 32°42' W 117°11'0 0.0
2015-Jul-04 16:32N 32°42' W 117°11'0 0.0
2015-Jul-04 15:32N 32°42' W 117°11'0 0.0
2015-Jul-04 14:32N 32°42' W 117°11'0 0.0
2015-Jul-04 13:32N 32°42' W 117°11'0 0.0
2015-Jul-04 12:32N 32°42' W 117°11'0 0.0
2015-Jul-04 11:32N 32°42' W 117°11'0 0.0
2015-Jul-04 10:32N 32°42' W 117°11'0 0.0
2015-Jul-04 09:29N 32°42' W 117°11'0 0.0
2015-Jul-04 08:32N 32°42' W 117°11'0 0.0
2015-Jul-04 07:32N 32°42' W 117°11'0 0.0
2015-Jul-04 06:29N 32°42' W 117°11'0 0.0
2015-Jul-04 05:32N 32°42' W 117°11'0 0.0
2015-Jul-04 00:11N 32°42' W 117°11'0 0.0
2015-Jul-03 22:26N 32°42' W 117°11'0 0.1
2015-Jul-03 21:32N 32°42' W 117°11'0 0.0
2015-Jul-03 20:32N 32°42' W 117°11'0 0.0
2015-Jul-03 19:32N 32°42' W 117°11'0 0.0
2015-Jul-03 18:32N 32°42' W 117°11'0 0.0
2015-Jul-03 17:32N 32°42' W 117°11'0 0.0
2015-Jul-03 16:32N 32°42' W 117°11'0 0.0
2015-Jul-03 15:32N 32°42' W 117°11'0 0.0
2015-Jul-03 14:32N 32°42' W 117°11'0 0.0
2015-Jul-03 13:32N 32°42' W 117°11'0 0.0
2015-Jul-03 12:32N 32°42' W 117°11'0 0.0
2015-Jul-03 11:32N 32°42' W 117°11'0 0.0
2015-Jul-03 10:32N 32°42' W 117°11'0 0.0
2015-Jul-03 09:32N 32°42' W 117°11'0 0.0
2015-Jul-03 08:32N 32°42' W 117°11'0 0.0
2015-Jul-03 07:32N 32°42' W 117°11'0 0.0
2015-Jul-03 06:32N 32°42' W 117°11'0 0.0
2015-Jul-03 05:32N 32°42' W 117°11'0 0.0
2015-Jul-03 04:32N 32°42' W 117°11'0 0.0
2015-Jul-03 03:32N 32°42' W 117°11'0 0.0
2015-Jul-03 02:32N 32°42' W 117°11'0 0.0
2015-Jul-03 01:32N 32°42' W 117°11'0 0.0
2015-Jul-03 00:32N 32°42' W 117°11'0 0.0
2015-Jul-02 23:32N 32°42' W 117°11'0 0.0
2015-Jul-02 22:32N 32°42' W 117°11'0 0.0
2015-Jul-02 21:32N 32°42' W 117°11'0 0.0
2015-Jul-02 20:32N 32°42' W 117°11'0 0.0
2015-Jul-02 19:32N 32°42' W 117°11'0 0.0
2015-Jul-02 18:32N 32°42' W 117°11'0 0.0
2015-Jul-02 17:32N 32°42' W 117°11'0 0.0
2015-Jul-02 16:29N 32°42' W 117°11'0 0.0
2015-Jul-02 15:32N 32°42' W 117°11'0 0.0
2015-Jul-02 14:29N 32°42' W 117°11'0 0.0
2015-Jul-02 13:32N 32°42' W 117°11'0 0.0
2015-Jul-02 12:32N 32°42' W 117°11'0 0.0
2015-Jul-02 11:32N 32°42' W 117°11'0 0.0
2015-Jul-02 10:32N 32°42' W 117°11'0 0.0
2015-Jul-02 09:32N 32°42' W 117°11'0 0.0
2015-Jul-02 08:32N 32°42' W 117°11'0 0.0
2015-Jul-02 07:32N 32°42' W 117°11'0 0.0
2015-Jul-02 06:32N 32°42' W 117°11'0 0.0
2015-Jul-02 05:32N 32°42' W 117°11'0 0.0
2015-Jul-02 04:32N 32°42' W 117°11'0 0.0
2015-Jul-02 03:32N 32°42' W 117°11'0 0.0
2015-Jul-02 02:32N 32°42' W 117°11'0 0.0
2015-Jul-02 01:32N 32°42' W 117°11'0 0.0
2015-Jul-02 00:32N 32°42' W 117°11'0 0.0
2015-Jul-01 23:32N 32°42' W 117°11'0 0.0
2015-Jul-01 22:32N 32°42' W 117°11'0 0.0
2015-Jul-01 21:32N 32°42' W 117°11'0 0.0
2015-Jul-01 20:32N 32°42' W 117°11'0 0.0
2015-Jul-01 19:32N 32°42' W 117°11'0 0.0
2015-Jul-01 18:32N 32°42' W 117°11'0 0.0
2015-Jul-01 17:32N 32°42' W 117°11'0 0.0
2015-Jul-01 16:32N 32°42' W 117°11'0 0.0
2015-Jul-01 15:32N 32°42' W 117°11'0 0.0
2015-Jul-01 14:32N 32°42' W 117°11'0 0.0
2015-Jul-01 13:32N 32°42' W 117°11'0 0.0
2015-Jul-01 12:32N 32°42' W 117°11'0 0.0
2015-Jul-01 11:32N 32°42' W 117°11'0 0.1
2015-Jul-01 10:32N 32°42' W 117°11'0 0.1
2015-Jul-01 09:32N 32°42' W 117°11'0 0.0
2015-Jul-01 08:32N 32°42' W 117°11'0 0.0
2015-Jul-01 07:32N 32°42' W 117°11'0 0.0
2015-Jul-01 06:32N 32°42' W 117°11'0 0.0
2015-Jul-01 05:32N 32°42' W 117°11'0 0.0
2015-Jul-01 04:32N 32°42' W 117°11'0 0.0
2015-Jul-01 03:32N 32°42' W 117°11'0 0.0
2015-Jul-01 02:32N 32°42' W 117°11'0 0.0
2015-Jul-01 01:32N 32°42' W 117°11'0 0.0
2015-Jul-01 00:29N 32°42' W 117°11'0 0.0
2015-Jun-30 23:32N 32°42' W 117°11'0 0.0
2015-Jun-30 22:32N 32°42' W 117°11'0 0.0
2015-Jun-30 21:32N 32°42' W 117°11'0 0.0
2015-Jun-30 20:32N 32°42' W 117°11'0 0.0
2015-Jun-30 19:32N 32°42' W 117°11'0 0.0
2015-Jun-30 18:32N 32°42' W 117°11'0 0.0
2015-Jun-30 17:32N 32°42' W 117°11'0 0.0
2015-Jun-30 16:32N 32°42' W 117°11'0 0.0
2015-Jun-30 15:32N 32°42' W 117°11'0 0.0
2015-Jun-30 14:32N 32°42' W 117°11'0 0.0
2015-Jun-30 13:32N 32°42' W 117°11'0 0.0
2015-Jun-30 12:32N 32°42' W 117°11'0 0.0
2015-Jun-30 11:32N 32°42' W 117°11'0 0.0
2015-Jun-30 10:32N 32°42' W 117°11'0 0.0
2015-Jun-30 09:32N 32°42' W 117°11'0 0.0
2015-Jun-30 08:29N 32°42' W 117°11'0 0.0
2015-Jun-30 07:32N 32°42' W 117°11'0 0.0
2015-Jun-30 06:32N 32°42' W 117°11'0 0.0
2015-Jun-30 05:32N 32°42' W 117°11'0 0.1
2015-Jun-30 04:32N 32°42' W 117°11'0 0.1
2015-Jun-30 03:32N 32°42' W 117°11'0 0.0
2015-Jun-30 02:32N 32°42' W 117°11'0 0.0
2015-Jun-30 01:32N 32°42' W 117°11'0 0.0
2015-Jun-30 00:32N 32°42' W 117°11'0 0.0
2015-Jun-29 23:32N 32°42' W 117°11'0 0.0
2015-Jun-29 22:32N 32°42' W 117°11'0 0.0
2015-Jun-29 21:32N 32°42' W 117°11'0 0.0
2015-Jun-29 20:32N 32°42' W 117°11'0 0.0
2015-Jun-29 19:32N 32°42' W 117°11'0 0.0
2015-Jun-29 18:32N 32°42' W 117°11'0 0.0
2015-Jun-29 17:32N 32°42' W 117°11'0 0.0
2015-Jun-29 16:32N 32°42' W 117°11'0 0.0
2015-Jun-29 15:32N 32°42' W 117°11'0 0.0
2015-Jun-29 14:32N 32°42' W 117°11'0 0.0
2015-Jun-29 13:32N 32°42' W 117°11'0 0.0
2015-Jun-29 12:29N 32°42' W 117°11'0 0.0
2015-Jun-29 11:32N 32°42' W 117°11'0 0.0
2015-Jun-29 10:32N 32°42' W 117°11'0 0.0
2015-Jun-29 09:32N 32°42' W 117°11'0 0.0
2015-Jun-29 08:32N 32°42' W 117°11'0 0.0
2015-Jun-29 07:32N 32°42' W 117°11'0 0.0
2015-Jun-29 06:32N 32°42' W 117°11'0 0.0
2015-Jun-29 05:32N 32°42' W 117°11'0 0.0
2015-Jun-29 04:32N 32°42' W 117°11'0 0.0
2015-Jun-29 03:32N 32°42' W 117°11'0 0.0
2015-Jun-29 02:32N 32°42' W 117°11'0 0.0
2015-Jun-29 01:32N 32°42' W 117°11'0 0.0
2015-Jun-29 00:32N 32°42' W 117°11'0 0.0
2015-Jun-28 23:32N 32°42' W 117°11'0 0.0
2015-Jun-28 22:32N 32°42' W 117°11'0 0.0
2015-Jun-28 21:32N 32°42' W 117°11'0 0.0
2015-Jun-28 20:32N 32°42' W 117°11'0 0.0
2015-Jun-28 19:32N 32°42' W 117°11'0 0.0
2015-Jun-28 18:32N 32°42' W 117°11'0 0.0
2015-Jun-28 17:32N 32°42' W 117°11'0 0.0
2015-Jun-28 16:32N 32°42' W 117°11'0 0.0
2015-Jun-28 15:32N 32°42' W 117°11'0 0.0
2015-Jun-28 14:32N 32°42' W 117°11'0 0.0
2015-Jun-28 13:32N 32°42' W 117°11'0 0.0
2015-Jun-28 12:32N 32°42' W 117°11'0 0.0
2015-Jun-28 11:32N 32°42' W 117°11'0 0.0
2015-Jun-28 10:32N 32°42' W 117°11'0 0.0
2015-Jun-28 09:32N 32°42' W 117°11'0 0.0
2015-Jun-28 08:32N 32°42' W 117°11'0 0.0
2015-Jun-28 07:32N 32°42' W 117°11'0 0.1
2015-Jun-28 06:32N 32°42' W 117°11'0 0.1
2015-Jun-28 05:32N 32°42' W 117°11'0 0.0
2015-Jun-28 04:32N 32°42' W 117°11'0 0.0
2015-Jun-28 03:32N 32°42' W 117°11'0 0.0
2015-Jun-28 02:32N 32°42' W 117°11'0 0.1
2015-Jun-28 01:32N 32°42' W 117°11'0 0.1
2015-Jun-28 00:32N 32°42' W 117°11'0 0.0
2015-Jun-27 23:32N 32°42' W 117°11'0 0.0
2015-Jun-27 22:32N 32°42' W 117°11'0 0.0
2015-Jun-27 21:32N 32°42' W 117°11'0 0.0
2015-Jun-27 20:32N 32°42' W 117°11'0 0.0
2015-Jun-27 19:32N 32°42' W 117°11'0 0.0
2015-Jun-27 18:32N 32°42' W 117°11'0 0.0
2015-Jun-27 17:32N 32°42' W 117°11'0 0.0
2015-Jun-27 16:32N 32°42' W 117°11'0 0.0
2015-Jun-27 15:32N 32°42' W 117°11'0 0.0
2015-Jun-27 14:32N 32°42' W 117°11'0 0.0
2015-Jun-27 13:32N 32°42' W 117°11'0 0.0
2015-Jun-27 12:32N 32°42' W 117°11'0 0.0
2015-Jun-27 11:32N 32°42' W 117°11'  
Track history (hours):
 
Tides and Currents Weather Stations Pressure Air Temp Water Temp Dewpoint Dewpoint Depression Visibility Wind Speed Wind Dir Waves Ship Positions

Kaiser

Last reported at 2015-Jul-07 10:33 UTC. Time now 2015-Jul-07 13:10 UTC.
Position N 31°19' W 117°56'.

Length 207 m; draft 8.5 m.

Type: Tanker. MMSI: 303849000.

Date/timePositionNaut miles runAvg speedWind from/ knotsBaromVisibWave heightAir tempDewpointWater temp
2015-Jul-07 10:33N 31°19' W 117°56'4810.8
2015-Jul-07 06:05N 31°58' W 118°30'510.1
2015-Jul-07 05:33N 32°03' W 118°30'1313.2
2015-Jul-07 04:33N 32°16' W 118°31'1914.2
2015-Jul-07 03:13N 32°30' W 118°47'6 9.0
2015-Jul-07 02:33N 32°36' W 118°49'1212.5
2015-Jul-07 01:33N 32°36' W 118°34'1312.8
2015-Jul-07 00:33N 32°36' W 118°19'1212.6
2015-Jul-06 23:33N 32°36' W 118°04'8 7.7
2015-Jul-06 22:34N 32°36' W 117°55'4 4.1
2015-Jul-06 21:33N 32°37' W 117°50'1312.5
2015-Jul-06 20:33N 32°36' W 117°35'1212.0
2015-Jul-06 19:33N 32°36' W 117°21'8 8.4
2015-Jul-06 18:33N 32°42' W 117°14'2 2.3
2015-Jul-06 17:32N 32°42' W 117°11'0 0.0
2015-Jul-06 16:32N 32°42' W 117°11'0 0.0
2015-Jul-06 15:32N 32°42' W 117°11'0 0.0
2015-Jul-06 14:32N 32°42' W 117°11'0 0.0
2015-Jul-06 13:32N 32°42' W 117°11'0 0.0
2015-Jul-06 12:32N 32°42' W 117°11'0 0.0
2015-Jul-06 11:32N 32°42' W 117°11'0 0.0
2015-Jul-06 10:32N 32°42' W 117°11'0 0.0
2015-Jul-06 09:32N 32°42' W 117°11'0 0.0
2015-Jul-06 08:32N 32°42' W 117°11'0 0.0
2015-Jul-06 07:32N 32°42' W 117°11'0 0.0
2015-Jul-06 06:32N 32°42' W 117°11'0 0.0
2015-Jul-06 05:32N 32°42' W 117°11'0 0.0
2015-Jul-06 04:32N 32°42' W 117°11'0 0.0
2015-Jul-06 03:32N 32°42' W 117°11'0 0.0
2015-Jul-06 02:32N 32°42' W 117°11'0 0.0
2015-Jul-06 01:32N 32°42' W 117°11'0 0.0
2015-Jul-06 00:32N 32°42' W 117°11'0 0.0
2015-Jul-05 23:32N 32°42' W 117°11'0 0.0
2015-Jul-05 22:32N 32°42' W 117°11'0 0.0
2015-Jul-05 21:32N 32°42' W 117°11'0 0.0
2015-Jul-05 20:32N 32°42' W 117°11'0 0.0
2015-Jul-05 19:32N 32°42' W 117°11'0 0.0
2015-Jul-05 18:32N 32°42' W 117°11'0 0.0
2015-Jul-05 17:32N 32°42' W 117°11'0 0.0
2015-Jul-05 16:32N 32°42' W 117°11'0 0.0
2015-Jul-05 15:32N 32°42' W 117°11'0 0.0
2015-Jul-05 14:32N 32°42' W 117°11'0 0.0
2015-Jul-05 13:32N 32°42' W 117°11'0 0.0
2015-Jul-05 12:32N 32°42' W 117°11'0 0.0
2015-Jul-05 11:32N 32°42' W 117°11'0 0.0
2015-Jul-05 10:32N 32°42' W 117°11'0 0.0
2015-Jul-05 09:32N 32°42' W 117°11'0 0.0
2015-Jul-05 08:32N 32°42' W 117°11'0 0.0
2015-Jul-05 07:32N 32°42' W 117°11'0 0.0
2015-Jul-05 06:32N 32°42' W 117°11'0 0.0
2015-Jul-05 05:32N 32°42' W 117°11'0 0.0
2015-Jul-05 04:32N 32°42' W 117°11'0 0.0
2015-Jul-05 03:32N 32°42' W 117°11'0 0.0
2015-Jul-05 02:29N 32°42' W 117°11'0 0.0
2015-Jul-05 01:32N 32°42' W 117°11'0 0.0
2015-Jul-05 00:32N 32°42' W 117°11'0 0.1
2015-Jul-04 23:32N 32°42' W 117°11'0 0.1
2015-Jul-04 22:32N 32°42' W 117°11'0 0.0
2015-Jul-04 21:32N 32°42' W 117°11'0 0.0
2015-Jul-04 20:32N 32°42' W 117°11'0 0.0
2015-Jul-04 19:32N 32°42' W 117°11'0 0.0
2015-Jul-04 18:32N 32°42' W 117°11'0 0.0
2015-Jul-04 17:32N 32°42' W 117°11'0 0.0
2015-Jul-04 16:32N 32°42' W 117°11'0 0.0
2015-Jul-04 15:32N 32°42' W 117°11'0 0.0
2015-Jul-04 14:32N 32°42' W 117°11'0 0.0
2015-Jul-04 13:32N 32°42' W 117°11'0 0.0
2015-Jul-04 12:32N 32°42' W 117°11'0 0.0
2015-Jul-04 11:32N 32°42' W 117°11'0 0.0
2015-Jul-04 10:32N 32°42' W 117°11'0 0.0
2015-Jul-04 09:29N 32°42' W 117°11'0 0.0
2015-Jul-04 08:32N 32°42' W 117°11'0 0.0
2015-Jul-04 07:32N 32°42' W 117°11'0 0.0
2015-Jul-04 06:29N 32°42' W 117°11'0 0.0
2015-Jul-04 05:32N 32°42' W 117°11'0 0.0
2015-Jul-04 00:11N 32°42' W 117°11'0 0.0
2015-Jul-03 22:26N 32°42' W 117°11'0 0.1
2015-Jul-03 21:32N 32°42' W 117°11'0 0.0
2015-Jul-03 20:32N 32°42' W 117°11'0 0.0
2015-Jul-03 19:32N 32°42' W 117°11'0 0.0
2015-Jul-03 18:32N 32°42' W 117°11'0 0.0
2015-Jul-03 17:32N 32°42' W 117°11'0 0.0
2015-Jul-03 16:32N 32°42' W 117°11'0 0.0
2015-Jul-03 15:32N 32°42' W 117°11'0 0.0
2015-Jul-03 14:32N 32°42' W 117°11'0 0.0
2015-Jul-03 13:32N 32°42' W 117°11'0 0.0
2015-Jul-03 12:32N 32°42' W 117°11'0 0.0
2015-Jul-03 11:32N 32°42' W 117°11'0 0.0
2015-Jul-03 10:32N 32°42' W 117°11'0 0.0
2015-Jul-03 09:32N 32°42' W 117°11'0 0.0
2015-Jul-03 08:32N 32°42' W 117°11'0 0.0
2015-Jul-03 07:32N 32°42' W 117°11'0 0.0
2015-Jul-03 06:32N 32°42' W 117°11'0 0.0
2015-Jul-03 05:32N 32°42' W 117°11'0 0.0
2015-Jul-03 04:32N 32°42' W 117°11'0 0.0
2015-Jul-03 03:32N 32°42' W 117°11'0 0.0
2015-Jul-03 02:32N 32°42' W 117°11'0 0.0
2015-Jul-03 01:32N 32°42' W 117°11'0 0.0
2015-Jul-03 00:32N 32°42' W 117°11'0 0.0
2015-Jul-02 23:32N 32°42' W 117°11'0 0.0
2015-Jul-02 22:32N 32°42' W 117°11'0 0.0
2015-Jul-02 21:32N 32°42' W 117°11'0 0.0
2015-Jul-02 20:32N 32°42' W 117°11'0 0.0
2015-Jul-02 19:32N 32°42' W 117°11'0 0.0
2015-Jul-02 18:32N 32°42' W 117°11'0 0.0
2015-Jul-02 17:32N 32°42' W 117°11'0 0.0
2015-Jul-02 16:29N 32°42' W 117°11'0 0.0
2015-Jul-02 15:32N 32°42' W 117°11'0 0.0
2015-Jul-02 14:29N 32°42' W 117°11'0 0.0
2015-Jul-02 13:32N 32°42' W 117°11'0 0.0
2015-Jul-02 12:32N 32°42' W 117°11'0 0.0
2015-Jul-02 11:32N 32°42' W 117°11'0 0.0
2015-Jul-02 10:32N 32°42' W 117°11'0 0.0
2015-Jul-02 09:32N 32°42' W 117°11'0 0.0
2015-Jul-02 08:32N 32°42' W 117°11'0 0.0
2015-Jul-02 07:32N 32°42' W 117°11'0 0.0
2015-Jul-02 06:32N 32°42' W 117°11'0 0.0
2015-Jul-02 05:32N 32°42' W 117°11'0 0.0
2015-Jul-02 04:32N 32°42' W 117°11'0 0.0
2015-Jul-02 03:32N 32°42' W 117°11'0 0.0
2015-Jul-02 02:32N 32°42' W 117°11'0 0.0
2015-Jul-02 01:32N 32°42' W 117°11'0 0.0
2015-Jul-02 00:32N 32°42' W 117°11'0 0.0
2015-Jul-01 23:32N 32°42' W 117°11'0 0.0
2015-Jul-01 22:32N 32°42' W 117°11'0 0.0
2015-Jul-01 21:32N 32°42' W 117°11'0 0.0
2015-Jul-01 20:32N 32°42' W 117°11'0 0.0
2015-Jul-01 19:32N 32°42' W 117°11'0 0.0
2015-Jul-01 18:32N 32°42' W 117°11'0 0.0
2015-Jul-01 17:32N 32°42' W 117°11'0 0.0
2015-Jul-01 16:32N 32°42' W 117°11'0 0.0
2015-Jul-01 15:32N 32°42' W 117°11'0 0.0
2015-Jul-01 14:32N 32°42' W 117°11'0 0.0
2015-Jul-01 13:32N 32°42' W 117°11'0 0.0
2015-Jul-01 12:32N 32°42' W 117°11'0 0.0
2015-Jul-01 11:32N 32°42' W 117°11'0 0.1
2015-Jul-01 10:32N 32°42' W 117°11'0 0.1
2015-Jul-01 09:32N 32°42' W 117°11'0 0.0
2015-Jul-01 08:32N 32°42' W 117°11'0 0.0
2015-Jul-01 07:32N 32°42' W 117°11'0 0.0
2015-Jul-01 06:32N 32°42' W 117°11'0 0.0
2015-Jul-01 05:32N 32°42' W 117°11'0 0.0
2015-Jul-01 04:32N 32°42' W 117°11'0 0.0
2015-Jul-01 03:32N 32°42' W 117°11'0 0.0
2015-Jul-01 02:32N 32°42' W 117°11'0 0.0
2015-Jul-01 01:32N 32°42' W 117°11'0 0.0
2015-Jul-01 00:29N 32°42' W 117°11'0 0.0
2015-Jun-30 23:32N 32°42' W 117°11'0 0.0
2015-Jun-30 22:32N 32°42' W 117°11'0 0.0
2015-Jun-30 21:32N 32°42' W 117°11'0 0.0
2015-Jun-30 20:32N 32°42' W 117°11'0 0.0
2015-Jun-30 19:32N 32°42' W 117°11'0 0.0
2015-Jun-30 18:32N 32°42' W 117°11'0 0.0
2015-Jun-30 17:32N 32°42' W 117°11'0 0.0
2015-Jun-30 16:32N 32°42' W 117°11'0 0.0
2015-Jun-30 15:32N 32°42' W 117°11'0 0.0
2015-Jun-30 14:32N 32°42' W 117°11'0 0.0
2015-Jun-30 13:32N 32°42' W 117°11'0 0.0
2015-Jun-30 12:32N 32°42' W 117°11'0 0.0
2015-Jun-30 11:32N 32°42' W 117°11'0 0.0
2015-Jun-30 10:32N 32°42' W 117°11'0 0.0
2015-Jun-30 09:32N 32°42' W 117°11'0 0.0
2015-Jun-30 08:29N 32°42' W 117°11'0 0.0
2015-Jun-30 07:32N 32°42' W 117°11'0 0.0
2015-Jun-30 06:32N 32°42' W 117°11'0 0.0
2015-Jun-30 05:32N 32°42' W 117°11'0 0.1
2015-Jun-30 04:32N 32°42' W 117°11'0 0.1
2015-Jun-30 03:32N 32°42' W 117°11'0 0.0
2015-Jun-30 02:32N 32°42' W 117°11'0 0.0
2015-Jun-30 01:32N 32°42' W 117°11'0 0.0
2015-Jun-30 00:32N 32°42' W 117°11'0 0.0
2015-Jun-29 23:32N 32°42' W 117°11'0 0.0
2015-Jun-29 22:32N 32°42' W 117°11'0 0.0
2015-Jun-29 21:32N 32°42' W 117°11'0 0.0
2015-Jun-29 20:32N 32°42' W 117°11'0 0.0
2015-Jun-29 19:32N 32°42' W 117°11'0 0.0
2015-Jun-29 18:32N 32°42' W 117°11'0 0.0
2015-Jun-29 17:32N 32°42' W 117°11'0 0.0
2015-Jun-29 16:32N 32°42' W 117°11'0 0.0
2015-Jun-29 15:32N 32°42' W 117°11'0 0.0
2015-Jun-29 14:32N 32°42' W 117°11'0 0.0
2015-Jun-29 13:32N 32°42' W 117°11'0 0.0
2015-Jun-29 12:29N 32°42' W 117°11'0 0.0
2015-Jun-29 11:32N 32°42' W 117°11'0 0.0
2015-Jun-29 10:32N 32°42' W 117°11'0 0.0
2015-Jun-29 09:32N 32°42' W 117°11'0 0.0
2015-Jun-29 08:32N 32°42' W 117°11'0 0.0
2015-Jun-29 07:32N 32°42' W 117°11'0 0.0
2015-Jun-29 06:32N 32°42' W 117°11'0 0.0
2015-Jun-29 05:32N 32°42' W 117°11'0 0.0
2015-Jun-29 04:32N 32°42' W 117°11'0 0.0
2015-Jun-29 03:32N 32°42' W 117°11'0 0.0
2015-Jun-29 02:32N 32°42' W 117°11'0 0.0
2015-Jun-29 01:32N 32°42' W 117°11'0 0.0
2015-Jun-29 00:32N 32°42' W 117°11'0 0.0
2015-Jun-28 23:32N 32°42' W 117°11'0 0.0
2015-Jun-28 22:32N 32°42' W 117°11'0 0.0
2015-Jun-28 21:32N 32°42' W 117°11'0 0.0
2015-Jun-28 20:32N 32°42' W 117°11'0 0.0
2015-Jun-28 19:32N 32°42' W 117°11'0 0.0
2015-Jun-28 18:32N 32°42' W 117°11'0 0.0
2015-Jun-28 17:32N 32°42' W 117°11'0 0.0
2015-Jun-28 16:32N 32°42' W 117°11'0 0.0
2015-Jun-28 15:32N 32°42' W 117°11'0 0.0
2015-Jun-28 14:32N 32°42' W 117°11'0 0.0
2015-Jun-28 13:32N 32°42' W 117°11'0 0.0
2015-Jun-28 12:32N 32°42' W 117°11'0 0.0
2015-Jun-28 11:32N 32°42' W 117°11'0 0.0
2015-Jun-28 10:32N 32°42' W 117°11'0 0.0
2015-Jun-28 09:32N 32°42' W 117°11'0 0.0
2015-Jun-28 08:32N 32°42' W 117°11'0 0.0
2015-Jun-28 07:32N 32°42' W 117°11'0 0.1
2015-Jun-28 06:32N 32°42' W 117°11'0 0.1
2015-Jun-28 05:32N 32°42' W 117°11'0 0.0
2015-Jun-28 04:32N 32°42' W 117°11'0 0.0
2015-Jun-28 03:32N 32°42' W 117°11'0 0.0
2015-Jun-28 02:32N 32°42' W 117°11'0 0.1
2015-Jun-28 01:32N 32°42' W 117°11'0 0.1
2015-Jun-28 00:32N 32°42' W 117°11'0 0.0
2015-Jun-27 23:32N 32°42' W 117°11'0 0.0
2015-Jun-27 22:32N 32°42' W 117°11'0 0.0
2015-Jun-27 21:32N 32°42' W 117°11'0 0.0
2015-Jun-27 20:32N 32°42' W 117°11'0 0.0
2015-Jun-27 19:32N 32°42' W 117°11'0 0.0
2015-Jun-27 18:32N 32°42' W 117°11'0 0.0
2015-Jun-27 17:32N 32°42' W 117°11'0 0.0
2015-Jun-27 16:32N 32°42' W 117°11'0 0.0
2015-Jun-27 15:32N 32°42' W 117°11'0 0.0
2015-Jun-27 14:32N 32°42' W 117°11'0 0.0
2015-Jun-27 13:32N 32°42' W 117°11'0 0.0
2015-Jun-27 12:32N 32°42' W 117°11'0 0.0
2015-Jun-27 11:32N 32°42' W 117°11'  

Dump ship's entire track history